createdAt,value
2022-11-18T00:00:54.569Z,17.63
2022-11-18T00:03:43.228Z,17.37
2022-11-18T00:06:30.887Z,17.43
2022-11-18T00:09:18.248Z,17.97
2022-11-18T00:12:26.535Z,17.30
2022-11-18T00:15:15.762Z,17.90
2022-11-18T00:18:04.909Z,18.37
2022-11-18T00:20:52.233Z,18.00
2022-11-18T00:23:41.790Z,18.60
2022-11-18T00:26:29.160Z,17.87
2022-11-18T00:29:17.069Z,18.30
2022-11-18T00:32:04.329Z,17.80
2022-11-18T00:34:51.266Z,16.87
2022-11-18T00:37:38.206Z,17.77
2022-11-18T00:40:25.810Z,18.27
2022-11-18T00:43:12.702Z,17.23
2022-11-18T00:45:59.896Z,17.33
2022-11-18T00:48:46.798Z,17.30
2022-11-18T00:51:33.800Z,17.87
2022-11-18T00:54:21.059Z,18.00
2022-11-18T00:57:08.021Z,15.27
2022-11-18T00:59:54.971Z,16.23
2022-11-18T01:02:43.951Z,16.60
2022-11-18T01:05:32.093Z,16.17
2022-11-18T01:08:20.128Z,17.17
2022-11-18T01:11:26.857Z,14.47
2022-11-18T01:14:15.041Z,14.47
2022-11-18T01:17:03.320Z,15.50
2022-11-18T01:19:50.338Z,14.77
2022-11-18T01:22:38.227Z,15.73
2022-11-18T01:25:26.187Z,15.17
2022-11-18T01:28:16.537Z,14.87
2022-11-18T01:31:12.792Z,15.50
2022-11-18T01:33:59.857Z,14.67
2022-11-18T01:36:46.876Z,15.23
2022-11-18T01:39:34.092Z,15.67
2022-11-18T01:42:22.005Z,14.60
2022-11-18T01:45:28.445Z,14.30
2022-11-18T01:48:21.012Z,14.60
2022-11-18T01:51:12.607Z,15.27
2022-11-18T01:54:22.065Z,15.97
2022-11-18T01:57:17.041Z,14.57
2022-11-18T02:00:06.313Z,14.53
2022-11-18T02:02:54.083Z,15.33
2022-11-18T02:05:43.344Z,14.73
2022-11-18T02:08:32.063Z,13.93
2022-11-18T02:11:38.570Z,15.63
2022-11-18T02:14:31.987Z,14.63
2022-11-18T02:17:58.949Z,15.20
2022-11-18T02:20:47.842Z,13.83
2022-11-18T02:23:41.534Z,14.10
2022-11-18T02:26:34.946Z,14.83
2022-11-18T02:29:29.025Z,13.90
2022-11-18T02:32:19.665Z,15.53
2022-11-18T02:35:14.849Z,14.00
2022-11-18T02:38:11.038Z,14.80
2022-11-18T02:41:14.065Z,15.17
2022-11-18T02:44:18.538Z,15.43
2022-11-18T02:47:07.930Z,15.67
2022-11-18T02:49:58.789Z,17.00
2022-11-18T02:52:47.427Z,16.60
2022-11-18T02:55:37.980Z,15.30
2022-11-18T02:58:26.044Z,17.67
2022-11-18T03:01:27.238Z,15.40
2022-11-18T03:04:16.779Z,15.70
2022-11-18T03:07:11.132Z,16.67
2022-11-18T03:09:59.888Z,16.63
2022-11-18T03:13:12.247Z,16.60
2022-11-18T03:16:09.953Z,15.70
2022-11-18T03:19:15.243Z,16.87
2022-11-18T03:22:30.743Z,18.27
2022-11-18T03:25:23.436Z,17.60
2022-11-18T03:28:23.423Z,15.80
2022-11-18T03:31:23.194Z,16.93
2022-11-18T03:34:20.504Z,18.40
2022-11-18T03:37:10.903Z,17.70
2022-11-18T03:40:04.024Z,18.93
2022-11-18T03:42:56.449Z,19.57
2022-11-18T03:45:47.614Z,18.40
2022-11-18T03:48:40.262Z,17.03
2022-11-18T03:51:33.423Z,18.90
2022-11-18T03:54:24.837Z,18.40
2022-11-18T03:57:16.952Z,17.77
2022-11-18T04:00:09.502Z,18.27
2022-11-18T04:02:56.496Z,17.17
2022-11-18T04:05:43.897Z,17.40
2022-11-18T04:08:36.373Z,18.30
2022-11-18T04:11:54.708Z,17.23
2022-11-18T04:14:44.370Z,16.23
2022-11-18T04:17:31.328Z,16.67
2022-11-18T04:20:21.558Z,16.23
2022-11-18T04:23:09.384Z,16.07
2022-11-18T04:25:57.262Z,16.20
2022-11-18T04:28:44.204Z,16.07
2022-11-18T04:31:31.112Z,14.87
2022-11-18T04:34:18.061Z,15.17
2022-11-18T04:37:05.195Z,15.67
2022-11-18T04:39:52.434Z,16.30
2022-11-18T04:42:39.426Z,16.50
2022-11-18T04:45:26.348Z,16.13
2022-11-18T04:48:13.261Z,16.40
2022-11-18T04:51:04.506Z,16.87
2022-11-18T04:53:51.395Z,16.00
2022-11-18T04:56:42.792Z,16.10
2022-11-18T04:59:32.732Z,16.23
2022-11-18T05:02:19.659Z,15.70
2022-11-18T05:05:07.197Z,15.80
2022-11-18T05:07:54.122Z,16.00
2022-11-18T05:10:41.052Z,15.87
2022-11-18T05:13:27.963Z,14.97
2022-11-18T05:16:14.855Z,15.67
2022-11-18T05:19:03.193Z,15.17
2022-11-18T05:21:50.359Z,16.70
2022-11-18T05:24:37.293Z,15.50
2022-11-18T05:27:24.235Z,16.57
2022-11-18T05:30:11.809Z,16.00
2022-11-18T05:32:58.765Z,15.63
2022-11-18T05:35:45.688Z,14.83
2022-11-18T05:38:33.768Z,16.27
2022-11-18T05:41:41.068Z,17.07
2022-11-18T05:44:28.007Z,18.67
2022-11-18T05:47:14.996Z,18.47
2022-11-18T05:50:02.993Z,19.57
2022-11-18T05:52:50.051Z,19.97
2022-11-18T05:56:01.627Z,19.33
2022-11-18T05:58:48.609Z,22.40
2022-11-18T06:01:43.667Z,23.83
2022-11-18T06:04:46.270Z,22.33
2022-11-18T06:07:37.983Z,21.20
2022-11-18T06:10:30.203Z,23.10
2022-11-18T06:13:21.570Z,23.87
2022-11-18T06:16:08.810Z,26.17
2022-11-18T06:18:57.092Z,24.13
2022-11-18T06:21:46.300Z,24.70
2022-11-18T06:24:33.691Z,25.23
2022-11-18T06:27:21.381Z,27.73
2022-11-18T06:30:09.725Z,27.40
2022-11-18T06:32:57.479Z,29.13
2022-11-18T06:35:45.430Z,30.67
2022-11-18T06:38:32.643Z,28.40
2022-11-18T06:41:20.562Z,25.33
2022-11-18T06:44:08.592Z,27.27
2022-11-18T06:46:56.088Z,23.00
2022-11-18T06:49:43.897Z,22.43
2022-11-18T06:52:31.808Z,20.20
2022-11-18T06:55:19.254Z,18.97
2022-11-18T06:58:06.681Z,17.50
2022-11-18T07:00:53.983Z,18.83
2022-11-18T07:03:42.471Z,16.27
2022-11-18T07:06:31.143Z,17.40
2022-11-18T07:09:18.578Z,16.13
2022-11-18T07:12:06.505Z,18.13
2022-11-18T07:14:53.619Z,15.90
2022-11-18T07:17:41.262Z,15.43
2022-11-18T07:20:28.775Z,16.00
2022-11-18T07:23:16.546Z,15.57
2022-11-18T07:26:05.246Z,15.00
2022-11-18T07:28:54.195Z,16.13
2022-11-18T07:31:42.685Z,15.43
2022-11-18T07:34:30.004Z,13.53
2022-11-18T07:37:18.036Z,14.10
2022-11-18T07:40:06.286Z,13.87
2022-11-18T07:42:54.720Z,12.77
2022-11-18T07:45:42.661Z,11.83
2022-11-18T07:48:30.802Z,13.53
2022-11-18T07:51:20.329Z,12.37
2022-11-18T07:54:09.563Z,11.93
2022-11-18T07:56:56.713Z,10.93
2022-11-18T07:59:44.007Z,10.47
2022-11-18T08:02:31.201Z,10.27
2022-11-18T08:05:19.139Z,10.40
2022-11-18T08:08:06.347Z,9.90
2022-11-18T08:10:57.824Z,9.90
2022-11-18T08:13:45.551Z,11.93
2022-11-18T08:16:32.506Z,9.67
2022-11-18T08:19:20.420Z,11.30
2022-11-18T08:22:07.647Z,8.43
2022-11-18T08:24:54.697Z,12.20
2022-11-18T08:27:42.117Z,9.23
2022-11-18T08:30:29.341Z,9.13
2022-11-18T08:33:16.512Z,9.23
2022-11-18T08:36:14.405Z,8.87
2022-11-18T08:39:04.226Z,8.33
2022-11-18T08:41:51.204Z,7.97
2022-11-18T08:44:38.848Z,7.87
2022-11-18T08:47:25.967Z,8.30
2022-11-18T08:50:13.345Z,8.30
2022-11-18T08:53:01.168Z,8.20
2022-11-18T08:55:53.052Z,8.47
2022-11-18T08:58:44.765Z,8.63
2022-11-18T09:01:32.432Z,8.23
2022-11-18T09:04:19.823Z,7.67
2022-11-18T09:07:06.893Z,7.57
2022-11-18T09:09:53.977Z,8.00
2022-11-18T09:12:41.552Z,8.77
2022-11-18T09:15:29.803Z,8.30
2022-11-18T09:18:17.261Z,7.53
2022-11-18T09:21:07.827Z,7.93
2022-11-18T09:23:55.609Z,8.13
2022-11-18T09:26:42.783Z,8.57
2022-11-18T09:29:29.728Z,7.70
2022-11-18T09:32:17.121Z,7.87
2022-11-18T09:35:04.642Z,8.30
2022-11-18T09:37:53.239Z,7.93
2022-11-18T09:40:56.609Z,8.43
2022-11-18T09:44:03.151Z,8.67
2022-11-18T09:47:09.573Z,7.73
2022-11-18T09:50:20.422Z,7.50
2022-11-18T09:53:24.540Z,6.00
2022-11-18T09:56:16.569Z,7.17
2022-11-18T09:59:04.813Z,7.60
2022-11-18T10:01:55.159Z,7.70
2022-11-18T10:04:42.544Z,7.57
2022-11-18T10:08:06.483Z,7.30
2022-11-18T10:11:17.080Z,6.73
2022-11-18T10:14:36.073Z,6.23
2022-11-18T10:17:41.757Z,5.60
2022-11-18T10:21:04.594Z,5.97
2022-11-18T10:24:02.479Z,6.27
2022-11-18T10:26:55.833Z,5.57
2022-11-18T10:29:45.129Z,5.63
2022-11-18T10:32:32.569Z,4.67
2022-11-18T10:35:27.959Z,4.50
2022-11-18T10:38:15.453Z,4.60
2022-11-18T10:41:04.451Z,4.57
2022-11-18T10:43:53.380Z,4.53
2022-11-18T10:46:41.149Z,4.20
2022-11-18T10:49:29.427Z,4.10
2022-11-18T10:52:17.526Z,4.23
2022-11-18T10:55:22.335Z,4.20
2022-11-18T10:58:16.267Z,4.10
2022-11-18T11:01:24.542Z,4.00
2022-11-18T11:04:23.847Z,3.37
2022-11-18T11:07:18.331Z,3.90
2022-11-18T11:10:09.087Z,3.20
2022-11-18T11:13:05.634Z,3.53
2022-11-18T11:15:54.408Z,4.10
2022-11-18T11:18:42.185Z,3.30
2022-11-18T11:21:30.837Z,3.00
2022-11-18T11:24:18.789Z,3.80
2022-11-18T11:30:17.303Z,3.40
2022-11-18T11:33:11.863Z,3.40
2022-11-18T11:36:18.222Z,3.33
2022-11-18T11:39:22.491Z,3.47
2022-11-18T11:42:30.496Z,3.20
2022-11-18T11:45:36.483Z,3.13
2022-11-18T11:48:33.545Z,3.37
2022-11-18T11:51:27.443Z,3.23
2022-11-18T11:54:21.243Z,3.30
2022-11-18T11:57:19.249Z,3.10
2022-11-18T12:00:11.107Z,3.27
2022-11-18T12:03:02.476Z,3.10
2022-11-18T12:05:50.207Z,3.40
2022-11-18T12:08:38.927Z,3.00
2022-11-18T12:11:35.352Z,2.90
2022-11-18T12:14:40.017Z,3.23
2022-11-18T12:17:40.679Z,3.37
2022-11-18T12:20:37.368Z,3.00
2022-11-18T12:23:27.397Z,3.37
2022-11-18T12:26:33.744Z,2.90
2022-11-18T12:29:21.499Z,3.17
2022-11-18T12:32:27.621Z,3.70
2022-11-18T12:35:27.228Z,3.80
2022-11-18T12:38:38.193Z,3.17
2022-11-18T12:41:59.872Z,2.90
2022-11-18T12:44:51.439Z,2.90
2022-11-18T12:47:42.224Z,2.60
2022-11-18T12:50:48.885Z,2.93
2022-11-18T12:53:38.862Z,2.70
2022-11-18T12:56:30.800Z,2.90
2022-11-18T12:59:27.076Z,3.10
2022-11-18T13:02:19.865Z,3.13
2022-11-18T13:05:07.336Z,3.00
2022-11-18T13:08:13.374Z,2.63
2022-11-18T13:11:25.963Z,2.47
2022-11-18T13:14:37.231Z,2.50
2022-11-18T13:17:45.570Z,2.50
2022-11-18T13:20:37.482Z,2.30
2022-11-18T13:23:45.800Z,2.33
2022-11-18T13:26:35.276Z,2.03
2022-11-18T13:29:41.441Z,2.40
2022-11-18T13:32:29.863Z,2.40
2022-11-18T13:35:19.499Z,2.50
2022-11-18T13:38:11.743Z,2.40
2022-11-18T13:41:05.032Z,2.00
2022-11-18T13:43:54.203Z,4.53
2022-11-18T13:46:42.933Z,4.37
2022-11-18T13:49:38.169Z,3.20
2022-11-18T13:52:29.851Z,5.53
2022-11-18T13:55:27.496Z,6.37
2022-11-18T13:59:15.599Z,4.97
2022-11-18T14:02:00.879Z,3.03
2022-11-18T14:04:50.292Z,2.47
2022-11-18T14:07:38.188Z,2.30
2022-11-18T14:10:38.084Z,2.93
2022-11-18T14:13:44.407Z,2.20
2022-11-18T14:16:33.927Z,2.00
2022-11-18T14:19:32.502Z,1.93
2022-11-18T14:22:21.456Z,1.90
2022-11-18T14:25:18.469Z,1.90
2022-11-18T14:28:18.443Z,1.90
2022-11-18T14:31:18.089Z,1.90
2022-11-18T14:34:14.527Z,2.27
2022-11-18T14:37:02.028Z,1.97
2022-11-18T14:39:55.765Z,2.30
2022-11-18T14:42:43.386Z,2.00
2022-11-18T14:45:30.846Z,1.80
2022-11-18T14:48:19.772Z,2.43
2022-11-18T14:51:07.625Z,2.40
2022-11-18T14:53:55.304Z,2.47
2022-11-18T14:56:43.454Z,2.90
2022-11-18T14:59:30.850Z,1.97
2022-11-18T15:02:18.894Z,2.07
2022-11-18T15:05:06.529Z,2.10
2022-11-18T15:07:54.241Z,1.93
2022-11-18T15:10:41.900Z,2.00
2022-11-18T15:13:29.536Z,2.10
2022-11-18T15:16:18.520Z,2.70
2022-11-18T15:19:06.843Z,2.23
2022-11-18T15:21:54.290Z,2.20
2022-11-18T15:24:41.715Z,1.93
2022-11-18T15:27:29.211Z,2.30
2022-11-18T15:30:16.854Z,2.20
2022-11-18T15:33:04.457Z,4.13
2022-11-18T15:35:51.858Z,12.73
2022-11-18T15:38:39.237Z,12.13
2022-11-18T15:41:27.823Z,4.10
2022-11-18T15:44:15.688Z,15.50
2022-11-18T15:47:03.303Z,13.07
2022-11-18T15:49:50.710Z,7.07
2022-11-18T15:52:38.151Z,6.77
2022-11-18T15:55:25.541Z,4.33
2022-11-18T15:58:12.867Z,3.57
2022-11-18T16:01:00.290Z,4.10
2022-11-18T16:03:48.331Z,2.87
2022-11-18T16:06:36.215Z,3.07
2022-11-18T16:09:23.807Z,3.07
2022-11-18T16:12:29.969Z,3.80
2022-11-18T16:15:36.706Z,2.90
2022-11-18T16:18:24.262Z,14.87
2022-11-18T16:21:11.628Z,4.73
2022-11-18T16:23:59.544Z,3.07
2022-11-18T16:26:47.247Z,3.87
2022-11-18T16:29:34.662Z,3.47
2022-11-18T16:32:22.047Z,5.60
2022-11-18T16:35:09.615Z,6.90
2022-11-18T16:37:57.018Z,3.93
2022-11-18T16:40:44.413Z,4.50
2022-11-18T16:43:31.766Z,3.40
2022-11-18T16:46:19.165Z,2.37
2022-11-18T16:49:07.887Z,3.10
2022-11-18T16:51:56.289Z,2.33
2022-11-18T16:54:46.009Z,2.63
2022-11-18T16:57:33.759Z,2.50
2022-11-18T17:00:32.341Z,2.20
2022-11-18T17:03:25.302Z,2.33
2022-11-18T17:06:12.656Z,3.00
2022-11-18T17:09:00.246Z,2.63
2022-11-18T17:11:48.115Z,2.47
2022-11-18T17:14:37.988Z,3.10
2022-11-18T17:17:25.397Z,2.87
2022-11-18T17:20:12.801Z,3.10
2022-11-18T17:23:00.155Z,3.20
2022-11-18T17:25:47.570Z,3.20
2022-11-18T17:28:35.978Z,2.90
2022-11-18T17:31:24.242Z,3.10
2022-11-18T17:34:12.986Z,2.90
2022-11-18T17:37:06.146Z,3.33
2022-11-18T17:39:53.998Z,3.00
2022-11-18T17:42:41.375Z,3.37
2022-11-18T17:45:28.774Z,3.60
2022-11-18T17:48:15.707Z,4.30
2022-11-18T17:51:04.144Z,5.00
2022-11-18T17:53:51.187Z,4.73
2022-11-18T17:56:38.418Z,4.90
2022-11-18T17:59:25.508Z,5.47
2022-11-18T18:02:12.895Z,5.57
2022-11-18T18:04:59.897Z,8.30
2022-11-18T18:07:48.293Z,16.63
2022-11-18T18:10:39.458Z,18.43
2022-11-18T18:13:45.442Z,11.80
2022-11-18T18:16:33.694Z,6.27
2022-11-18T18:19:22.951Z,5.40
2022-11-18T18:22:09.953Z,6.33
2022-11-18T18:24:56.948Z,5.80
2022-11-18T18:27:43.887Z,5.10
2022-11-18T18:30:30.869Z,5.40
2022-11-18T18:33:17.852Z,5.17
2022-11-18T18:36:09.341Z,5.70
2022-11-18T18:38:57.003Z,5.60
2022-11-18T18:41:44.115Z,5.07
2022-11-18T18:44:51.057Z,7.40
2022-11-18T18:47:38.083Z,7.10
2022-11-18T18:50:29.514Z,7.70
2022-11-18T18:53:16.881Z,7.00
2022-11-18T18:56:03.941Z,7.87
2022-11-18T18:58:50.946Z,6.43
2022-11-18T19:01:38.969Z,7.57
2022-11-18T19:04:26.245Z,7.23
2022-11-18T19:07:13.289Z,7.03
2022-11-18T19:10:00.336Z,6.87
2022-11-18T19:12:52.015Z,5.77
2022-11-18T19:15:39.032Z,6.53
2022-11-18T19:18:26.367Z,6.47
2022-11-18T19:21:13.488Z,6.83
2022-11-18T19:24:04.346Z,6.13
2022-11-18T19:26:51.321Z,6.80
2022-11-18T19:29:38.473Z,6.33
2022-11-18T19:32:25.464Z,6.27
2022-11-18T19:35:12.703Z,6.13
2022-11-18T19:37:59.689Z,7.03
2022-11-18T19:40:46.676Z,7.20
2022-11-18T19:43:34.041Z,6.40
2022-11-18T19:46:21.080Z,6.20
2022-11-18T19:49:09.314Z,6.13
2022-11-18T19:51:56.287Z,5.70
2022-11-18T19:54:44.502Z,6.00
2022-11-18T19:57:31.929Z,4.17
2022-11-18T20:00:19.315Z,3.90
2022-11-18T20:03:06.285Z,4.43
2022-11-18T20:05:53.355Z,4.10
2022-11-18T20:08:40.970Z,3.83
2022-11-18T20:11:28.153Z,3.87
2022-11-18T20:14:15.126Z,3.37
2022-11-18T20:17:02.256Z,3.80
2022-11-18T20:19:49.229Z,3.27
2022-11-18T20:22:36.188Z,3.40
2022-11-18T20:25:23.126Z,3.60
2022-11-18T20:28:12.331Z,3.50
2022-11-18T20:31:00.615Z,3.73
2022-11-18T20:33:50.279Z,4.10
2022-11-18T20:36:37.239Z,3.77
2022-11-18T20:39:24.334Z,3.70
2022-11-18T20:42:29.998Z,4.27
2022-11-18T20:45:16.907Z,4.07
2022-11-18T20:48:04.229Z,3.77
2022-11-18T20:50:51.285Z,4.10
2022-11-18T20:53:41.830Z,3.23
2022-11-18T20:56:28.851Z,3.47
2022-11-18T20:59:16.623Z,3.53
2022-11-18T21:02:03.863Z,4.50
2022-11-18T21:04:52.055Z,4.03
2022-11-18T21:07:39.097Z,4.20
2022-11-18T21:10:26.239Z,3.90
2022-11-18T21:13:31.882Z,8.43
2022-11-18T21:16:20.211Z,7.87
2022-11-18T21:19:07.680Z,8.93
2022-11-18T21:21:55.709Z,10.70
2022-11-18T21:24:42.827Z,9.93
2022-11-18T21:27:29.812Z,10.43
2022-11-18T21:30:19.148Z,9.80
2022-11-18T21:33:06.616Z,8.90
2022-11-18T21:35:53.696Z,7.80
2022-11-18T21:38:40.667Z,6.93
2022-11-18T21:41:29.203Z,6.23
2022-11-18T21:44:16.287Z,7.17
2022-11-18T21:47:07.361Z,5.13
2022-11-18T21:49:54.260Z,4.50
2022-11-18T21:52:41.267Z,4.83
2022-11-18T21:55:28.164Z,4.70
2022-11-18T21:58:15.151Z,4.90
2022-11-18T22:01:15.298Z,5.23
2022-11-18T22:04:04.653Z,5.20
2022-11-18T22:06:51.641Z,5.10
2022-11-18T22:09:38.559Z,5.10
2022-11-18T22:12:25.632Z,5.13
2022-11-18T22:15:12.699Z,6.00
2022-11-18T22:17:59.703Z,5.13
2022-11-18T22:20:46.637Z,6.07
2022-11-18T22:23:34.287Z,5.60
2022-11-18T22:26:21.639Z,5.20
2022-11-18T22:29:08.616Z,5.53
2022-11-18T22:31:55.577Z,5.93
2022-11-18T22:34:42.570Z,5.20
2022-11-18T22:37:29.518Z,5.57
2022-11-18T22:40:16.678Z,6.40
2022-11-18T22:43:03.984Z,6.13
2022-11-18T22:46:01.022Z,5.83
2022-11-18T22:48:47.952Z,5.97
2022-11-18T22:51:35.819Z,5.60
2022-11-18T22:54:38.294Z,5.53
2022-11-18T22:57:26.084Z,5.33
2022-11-18T23:00:13.756Z,5.47
2022-11-18T23:03:00.746Z,6.57
2022-11-18T23:05:47.772Z,6.30
2022-11-18T23:08:37.495Z,5.73
2022-11-18T23:11:43.403Z,5.70
2022-11-18T23:14:31.709Z,5.50
2022-11-18T23:17:18.665Z,5.80
2022-11-18T23:20:06.306Z,5.73
2022-11-18T23:22:53.691Z,6.47
2022-11-18T23:25:41.098Z,6.00
2022-11-18T23:28:28.849Z,5.57
2022-11-18T23:31:20.204Z,6.63
2022-11-18T23:34:07.561Z,5.10
2022-11-18T23:36:54.486Z,5.27
2022-11-18T23:39:41.462Z,5.27
2022-11-18T23:42:28.375Z,5.20
2022-11-18T23:45:15.376Z,4.67
2022-11-18T23:48:02.595Z,4.40
2022-11-18T23:51:02.870Z,4.90
2022-11-18T23:53:55.285Z,5.30
2022-11-18T23:56:42.241Z,4.83
2022-11-18T23:59:29.157Z,4.77
